createdAt,value
2023-03-08T00:00:29.276Z,16.40
2023-03-08T00:03:34.034Z,16.00
2023-03-08T00:06:37.433Z,16.00
2023-03-08T00:09:40.804Z,15.40
2023-03-08T00:12:44.118Z,16.00
2023-03-08T00:15:47.738Z,16.40
2023-03-08T00:18:52.601Z,15.20
2023-03-08T00:21:55.848Z,14.00
2023-03-08T00:24:59.166Z,15.80
2023-03-08T00:28:02.548Z,16.00
2023-03-08T00:31:09.194Z,14.00
2023-03-08T00:34:13.914Z,17.40
2023-03-08T00:37:17.339Z,16.00
2023-03-08T00:40:22.480Z,15.00
2023-03-08T00:43:26.077Z,15.40
2023-03-08T00:46:29.775Z,15.40
2023-03-08T00:49:34.491Z,13.20
2023-03-08T00:52:37.757Z,17.00
2023-03-08T00:55:49.804Z,15.60
2023-03-08T00:58:53.570Z,15.40
2023-03-08T01:01:57.169Z,15.00
2023-03-08T01:05:02.271Z,16.60
2023-03-08T01:08:06.053Z,15.80
2023-03-08T01:11:16.974Z,17.00
2023-03-08T01:14:20.300Z,13.50
2023-03-08T01:17:23.856Z,15.60
2023-03-08T01:20:28.560Z,16.20
2023-03-08T01:23:32.799Z,16.60
2023-03-08T01:26:36.675Z,15.60
2023-03-08T01:29:40.005Z,18.00
2023-03-08T01:32:43.707Z,18.00
2023-03-08T01:35:48.541Z,18.00
2023-03-08T01:38:52.853Z,15.40
2023-03-08T01:41:57.102Z,16.00
2023-03-08T01:45:03.444Z,19.00
2023-03-08T01:48:09.085Z,15.80
2023-03-08T01:51:40.687Z,20.20
2023-03-08T01:54:47.258Z,22.00
2023-03-08T01:57:54.148Z,18.50
2023-03-08T02:00:57.864Z,20.40
2023-03-08T02:04:01.498Z,21.40
2023-03-08T02:07:06.860Z,21.60
2023-03-08T02:10:12.747Z,24.00
2023-03-08T02:13:16.236Z,20.20
2023-03-08T02:16:22.835Z,20.00
2023-03-08T02:19:33.457Z,18.00
2023-03-08T02:22:40.942Z,23.20
2023-03-08T02:25:53.172Z,24.00
2023-03-08T02:28:56.503Z,23.80
2023-03-08T02:31:59.918Z,21.00
2023-03-08T02:35:03.345Z,20.50
2023-03-08T02:38:07.965Z,21.60
2023-03-08T02:41:11.304Z,23.00
2023-03-08T02:44:14.649Z,20.50
2023-03-08T02:47:17.982Z,20.00
2023-03-08T02:50:23.195Z,22.50
2023-03-08T02:53:28.012Z,24.40
2023-03-08T02:56:31.376Z,24.40
2023-03-08T02:59:34.765Z,20.00
2023-03-08T03:02:38.847Z,22.60
2023-03-08T03:05:44.294Z,21.60
2023-03-08T03:08:52.869Z,22.00
2023-03-08T03:11:56.717Z,19.60
2023-03-08T03:15:02.080Z,19.00
2023-03-08T03:18:06.556Z,17.00
2023-03-08T03:21:12.525Z,20.40
2023-03-08T03:24:17.415Z,17.40
2023-03-08T03:27:29.391Z,22.60
2023-03-08T03:30:33.082Z,17.00
2023-03-08T03:33:37.852Z,13.00
2023-03-08T03:36:41.292Z,19.00
2023-03-08T03:39:47.294Z,19.00
2023-03-08T03:42:53.373Z,18.20
2023-03-08T03:45:58.180Z,16.20
2023-03-08T03:49:02.291Z,17.00
2023-03-08T03:52:10.898Z,15.00
2023-03-08T03:55:21.357Z,16.00
2023-03-08T03:58:24.854Z,20.00
2023-03-08T04:01:30.733Z,15.00
2023-03-08T04:04:43.901Z,12.00
2023-03-08T04:07:49.800Z,17.00
2023-03-08T04:11:01.601Z,16.60
2023-03-08T04:14:06.539Z,17.00
2023-03-08T04:17:10.512Z,17.80
2023-03-08T04:20:19.601Z,20.00
2023-03-08T04:23:30.700Z,18.25
2023-03-08T04:26:36.282Z,19.00
2023-03-08T04:29:39.590Z,18.00
2023-03-08T04:32:43.473Z,16.00
2023-03-08T04:35:47.227Z,15.25
2023-03-08T04:38:53.986Z,14.00
2023-03-08T04:41:59.538Z,17.00
2023-03-08T04:45:07.456Z,15.00
2023-03-08T04:48:11.181Z,12.40
2023-03-08T04:51:16.522Z,13.80
2023-03-08T04:54:21.285Z,14.60
2023-03-08T04:57:32.105Z,13.20
2023-03-08T05:00:37.435Z,16.50
2023-03-08T05:03:41.975Z,11.00
2023-03-08T05:06:46.024Z,15.80
2023-03-08T05:09:54.863Z,14.75
2023-03-08T05:13:01.987Z,15.20
2023-03-08T05:16:07.015Z,14.60
2023-03-08T05:19:10.424Z,14.00
2023-03-08T05:22:21.455Z,12.25
2023-03-08T05:25:27.458Z,14.00
2023-03-08T05:28:34.883Z,13.60
2023-03-08T05:31:40.108Z,13.00
2023-03-08T05:34:46.338Z,13.00
2023-03-08T05:37:56.489Z,12.00
2023-03-08T05:41:02.236Z,10.50
2023-03-08T05:44:07.484Z,14.50
2023-03-08T05:47:12.410Z,15.00
2023-03-08T05:50:15.765Z,16.00
2023-03-08T05:53:21.261Z,13.60
2023-03-08T05:56:25.795Z,14.40
2023-03-08T05:59:44.035Z,13.40
2023-03-08T06:02:51.270Z,13.00
2023-03-08T06:05:57.808Z,14.25
2023-03-08T06:09:01.713Z,13.00
2023-03-08T06:12:07.144Z,12.00
2023-03-08T06:15:13.236Z,13.25
2023-03-08T06:18:17.164Z,11.60
2023-03-08T06:21:23.113Z,12.75
2023-03-08T06:24:33.896Z,15.50
2023-03-08T06:27:40.280Z,12.00
2023-03-08T06:31:08.848Z,12.20
2023-03-08T06:34:13.129Z,13.00
2023-03-08T06:37:17.819Z,13.00
2023-03-08T06:40:21.571Z,10.00
2023-03-08T06:43:25.277Z,13.50
2023-03-08T06:46:30.094Z,12.00
2023-03-08T06:49:33.588Z,13.00
2023-03-08T06:52:37.927Z,15.00
2023-03-08T06:55:43.849Z,17.00
2023-03-08T06:58:47.388Z,19.00
2023-03-08T07:01:52.087Z,25.00
2023-03-08T07:04:55.403Z,10.80
2023-03-08T07:07:58.842Z,13.00
2023-03-08T07:11:02.856Z,13.00
2023-03-08T07:14:06.314Z,10.00
2023-03-08T07:17:11.045Z,10.00
2023-03-08T07:20:18.028Z,12.00
2023-03-08T07:23:21.423Z,14.75
2023-03-08T07:26:24.754Z,13.60
2023-03-08T07:29:28.333Z,12.60
2023-03-08T07:32:33.081Z,14.00
2023-03-08T07:35:38.426Z,15.40
2023-03-08T07:38:43.008Z,12.00
2023-03-08T07:41:47.553Z,15.60
2023-03-08T07:44:51.069Z,13.00
2023-03-08T07:47:55.878Z,13.60
2023-03-08T07:51:03.858Z,13.80
2023-03-08T07:54:07.725Z,11.60
2023-03-08T07:57:14.479Z,11.60
2023-03-08T08:00:19.207Z,9.50
2023-03-08T08:03:24.335Z,10.40
2023-03-08T08:06:27.843Z,12.00
2023-03-08T08:09:31.120Z,11.25
2023-03-08T08:12:35.176Z,12.60
2023-03-08T08:15:38.490Z,13.00
2023-03-08T08:18:43.282Z,11.00
2023-03-08T08:21:47.275Z,12.00
2023-03-08T08:24:50.599Z,11.60
2023-03-08T08:27:53.904Z,13.40
2023-03-08T08:30:58.876Z,14.00
2023-03-08T08:34:03.717Z,13.00
2023-03-08T08:37:06.971Z,15.25
2023-03-08T08:40:12.266Z,9.00
2023-03-08T08:43:16.066Z,15.00
2023-03-08T08:46:19.907Z,13.25
2023-03-08T08:49:24.590Z,13.20
2023-03-08T08:52:27.940Z,11.00
2023-03-08T08:55:31.204Z,14.40
2023-03-08T08:58:35.817Z,12.00
2023-03-08T09:01:43.604Z,11.60
2023-03-08T09:04:48.434Z,12.75
2023-03-08T09:07:54.117Z,13.00
2023-03-08T09:10:57.452Z,12.00
2023-03-08T09:14:02.509Z,13.00
2023-03-08T09:17:07.053Z,10.50
2023-03-08T09:20:12.958Z,12.40
2023-03-08T09:23:16.501Z,14.50
2023-03-08T09:26:20.304Z,12.00
2023-03-08T09:29:23.640Z,11.75
2023-03-08T09:32:27.741Z,12.60
2023-03-08T09:35:32.495Z,11.60
2023-03-08T09:38:35.773Z,10.75
2023-03-08T09:41:49.607Z,12.60
2023-03-08T09:45:08.535Z,11.80
2023-03-08T09:48:17.125Z,13.00
2023-03-08T09:51:27.487Z,15.00
2023-03-08T09:54:34.120Z,12.75
2023-03-08T09:57:43.265Z,9.00
2023-03-08T10:00:47.474Z,11.00
2023-03-08T10:04:06.527Z,13.40
2023-03-08T10:07:33.401Z,10.00
2023-03-08T10:10:47.512Z,12.50
2023-03-08T10:13:57.347Z,11.00
2023-03-08T10:17:06.358Z,13.60
2023-03-08T10:20:20.312Z,10.25
2023-03-08T10:23:26.024Z,10.00
2023-03-08T10:26:30.486Z,11.60
2023-03-08T10:29:33.741Z,10.75
2023-03-08T10:32:43.929Z,14.00
2023-03-08T10:36:00.143Z,13.00
2023-03-08T10:39:08.983Z,11.00
2023-03-08T10:42:16.789Z,12.00
2023-03-08T10:45:24.189Z,12.00
2023-03-08T10:48:27.507Z,10.50
2023-03-08T10:51:31.014Z,11.00
2023-03-08T10:54:35.873Z,11.00
2023-03-08T10:57:41.544Z,11.60
2023-03-08T11:00:45.844Z,12.00
2023-03-08T11:03:59.770Z,13.00
2023-03-08T11:07:13.265Z,11.75
2023-03-08T11:10:20.252Z,11.60
2023-03-08T11:13:28.437Z,10.50
2023-03-08T11:17:00.247Z,12.40
2023-03-08T11:20:16.202Z,10.00
2023-03-08T11:23:27.910Z,12.00
2023-03-08T11:26:41.831Z,11.00
2023-03-08T11:29:58.871Z,12.00
2023-03-08T11:33:34.379Z,12.00
2023-03-08T11:36:44.825Z,11.00
2023-03-08T11:39:57.541Z,13.00
2023-03-08T11:43:19.393Z,12.00
2023-03-08T11:46:27.307Z,12.40
2023-03-08T11:49:48.762Z,14.00
2023-03-08T11:53:05.750Z,12.50
2023-03-08T11:56:45.715Z,11.00
2023-03-08T11:59:57.333Z,10.20
2023-03-08T12:03:07.535Z,9.00
2023-03-08T12:06:27.826Z,10.50
2023-03-08T12:09:38.562Z,12.00
2023-03-08T12:12:47.092Z,9.60
2023-03-08T12:15:56.626Z,11.00
2023-03-08T12:19:06.887Z,12.50
2023-03-08T12:22:43.375Z,11.40
2023-03-08T12:25:50.511Z,13.75
2023-03-08T12:28:58.263Z,12.00
2023-03-08T12:32:04.828Z,13.00
2023-03-08T12:35:25.347Z,11.20
2023-03-08T12:38:39.559Z,12.80
2023-03-08T12:41:43.036Z,15.00
2023-03-08T12:44:46.356Z,12.00
2023-03-08T12:48:03.363Z,12.00
2023-03-08T12:51:20.821Z,14.00
2023-03-08T12:54:25.059Z,14.00
2023-03-08T12:57:31.781Z,13.00
2023-03-08T13:00:37.808Z,13.00
2023-03-08T13:03:43.538Z,16.60
2023-03-08T13:07:10.285Z,14.00
2023-03-08T13:10:21.973Z,12.00
2023-03-08T13:13:38.763Z,12.50
2023-03-08T13:16:42.620Z,10.60
2023-03-08T13:19:49.811Z,12.00
2023-03-08T13:23:03.652Z,14.50
2023-03-08T13:26:24.522Z,11.50
2023-03-08T13:29:31.716Z,16.00
2023-03-08T13:32:35.343Z,13.60
2023-03-08T13:35:41.704Z,12.60
2023-03-08T13:38:45.142Z,12.80
2023-03-08T13:41:49.338Z,13.60
2023-03-08T13:44:53.312Z,14.75
2023-03-08T13:47:59.545Z,12.00
2023-03-08T13:51:04.933Z,12.40
2023-03-08T13:54:16.345Z,14.60
2023-03-08T13:57:22.890Z,13.00
2023-03-08T14:00:31.425Z,11.40
2023-03-08T14:03:35.370Z,10.00
2023-03-08T14:06:43.367Z,10.20
2023-03-08T14:09:46.668Z,11.80
2023-03-08T14:12:49.919Z,14.00
2023-03-08T14:15:55.622Z,15.00
2023-03-08T14:19:00.111Z,13.00
2023-03-08T14:22:11.637Z,12.00
2023-03-08T14:25:24.293Z,14.00
2023-03-08T14:28:41.880Z,14.00
2023-03-08T14:32:04.542Z,10.60
2023-03-08T14:35:16.743Z,14.00
2023-03-08T14:38:26.961Z,12.75
2023-03-08T14:41:32.663Z,12.50
2023-03-08T14:44:36.358Z,11.00
2023-03-08T14:47:39.663Z,13.40
2023-03-08T14:50:53.561Z,15.00
2023-03-08T14:54:00.955Z,13.00
2023-03-08T14:57:17.845Z,12.60
2023-03-08T15:00:22.458Z,11.40
2023-03-08T15:03:26.018Z,13.00
2023-03-08T15:06:31.799Z,10.00
2023-03-08T15:09:36.541Z,12.40
2023-03-08T15:12:41.036Z,9.00
2023-03-08T15:15:44.709Z,7.60
2023-03-08T15:18:48.134Z,8.80
2023-03-08T15:21:51.516Z,9.00
2023-03-08T15:24:56.200Z,11.50
2023-03-08T15:27:59.436Z,7.60
2023-03-08T15:31:02.992Z,7.00
2023-03-08T15:34:06.246Z,11.40
2023-03-08T15:37:15.274Z,8.60
2023-03-08T15:40:22.387Z,9.25
2023-03-08T15:43:26.202Z,8.60
2023-03-08T15:46:29.432Z,7.00
2023-03-08T15:49:32.727Z,10.25
2023-03-08T15:52:36.014Z,11.00
2023-03-08T15:55:41.216Z,10.50
2023-03-08T15:58:44.564Z,11.00
2023-03-08T16:01:47.877Z,10.60
2023-03-08T16:04:55.773Z,10.00
2023-03-08T16:08:00.864Z,9.80
2023-03-08T16:11:08.820Z,10.00
2023-03-08T16:14:17.749Z,8.00
2023-03-08T16:17:21.021Z,14.00
2023-03-08T16:20:24.740Z,10.00
2023-03-08T16:23:28.231Z,9.80
2023-03-08T16:26:32.914Z,11.00
2023-03-08T16:29:36.591Z,12.80
2023-03-08T16:32:40.148Z,14.00
2023-03-08T16:35:49.933Z,11.00
2023-03-08T16:38:55.022Z,14.00
2023-03-08T16:42:00.282Z,14.00
2023-03-08T16:45:04.501Z,12.00
2023-03-08T16:48:08.476Z,13.00
2023-03-08T16:51:15.696Z,15.40
2023-03-08T16:54:18.928Z,14.00
2023-03-08T16:57:23.600Z,14.00
2023-03-08T17:00:27.255Z,14.00
2023-03-08T17:03:30.995Z,14.00
2023-03-08T17:06:34.971Z,14.60
2023-03-08T17:09:39.321Z,14.00
2023-03-08T17:12:43.945Z,10.00
2023-03-08T17:15:47.805Z,17.40
2023-03-08T17:18:51.999Z,17.00
2023-03-08T17:21:55.824Z,15.00
2023-03-08T17:24:59.207Z,17.60
2023-03-08T17:28:04.160Z,13.00
2023-03-08T17:31:10.103Z,14.60
2023-03-08T17:34:13.908Z,15.60
2023-03-08T17:37:17.199Z,16.00
2023-03-08T17:40:21.024Z,15.20
2023-03-08T17:43:25.874Z,18.00
2023-03-08T17:46:29.375Z,15.75
2023-03-08T17:49:33.536Z,13.25
2023-03-08T17:52:36.951Z,16.20
2023-03-08T17:55:42.164Z,16.50
2023-03-08T17:58:46.887Z,13.00
2023-03-08T18:01:50.213Z,19.80
2023-03-08T18:04:55.893Z,18.20
2023-03-08T18:07:59.268Z,16.25
2023-03-08T18:11:02.673Z,17.00
2023-03-08T18:14:08.592Z,14.00
2023-03-08T18:17:12.293Z,17.00
2023-03-08T18:20:15.654Z,18.00
2023-03-08T18:23:18.917Z,14.00
2023-03-08T18:26:22.259Z,17.00
2023-03-08T18:29:26.920Z,16.00
2023-03-08T18:32:30.250Z,15.00
2023-03-08T18:35:33.864Z,17.60
2023-03-08T18:38:37.631Z,16.75
2023-03-08T18:41:41.590Z,20.60
2023-03-08T18:44:46.555Z,19.00
2023-03-08T18:47:51.050Z,16.40
2023-03-08T18:50:54.679Z,17.40
2023-03-08T18:53:59.105Z,19.00
2023-03-08T18:57:02.657Z,16.00
2023-03-08T19:00:11.839Z,19.00
2023-03-08T19:03:15.163Z,21.80
2023-03-08T19:06:18.922Z,19.40
2023-03-08T19:09:22.329Z,21.00
2023-03-08T19:12:25.579Z,23.00
2023-03-08T19:15:30.379Z,23.00
2023-03-08T19:18:33.724Z,23.00
2023-03-08T19:21:39.518Z,24.00
2023-03-08T19:24:42.888Z,27.60
2023-03-08T19:27:46.566Z,30.00
2023-03-08T19:30:51.408Z,25.00
2023-03-08T19:33:56.743Z,27.00
2023-03-08T19:37:01.505Z,25.50
2023-03-08T19:40:09.267Z,27.00
2023-03-08T19:43:13.865Z,27.20
2023-03-08T19:46:18.570Z,27.33
2023-03-08T19:49:23.675Z,25.60
2023-03-08T19:52:26.991Z,28.50
2023-03-08T19:55:30.221Z,26.00
2023-03-08T19:58:33.580Z,31.00
2023-03-08T20:01:40.147Z,25.00
2023-03-08T20:04:43.696Z,23.00
2023-03-08T20:07:47.260Z,27.00
2023-03-08T20:10:50.672Z,26.40
2023-03-08T20:13:54.453Z,23.00
2023-03-08T20:17:01.640Z,24.60
2023-03-08T20:20:06.555Z,23.25
2023-03-08T20:23:10.585Z,26.80
2023-03-08T20:26:14.677Z,25.75
2023-03-08T20:29:18.135Z,26.60
2023-03-08T20:32:22.846Z,27.20
2023-03-08T20:35:26.260Z,30.00
2023-03-08T20:38:29.822Z,27.00
2023-03-08T20:41:33.112Z,25.80
2023-03-08T20:44:36.412Z,25.80
2023-03-08T20:47:41.089Z,26.00
2023-03-08T20:50:44.396Z,25.80
2023-03-08T20:53:50.852Z,29.75
2023-03-08T20:56:54.176Z,27.00
2023-03-08T20:59:57.531Z,26.40
2023-03-08T21:03:02.626Z,26.00
2023-03-08T21:06:11.873Z,23.20
2023-03-08T21:09:15.251Z,21.00
2023-03-08T21:12:18.586Z,24.40
2023-03-08T21:15:21.978Z,20.00
2023-03-08T21:18:26.733Z,22.00
2023-03-08T21:21:33.580Z,25.25
2023-03-08T21:24:37.461Z,22.40
2023-03-08T21:27:40.756Z,22.60
2023-03-08T21:30:44.153Z,25.80
2023-03-08T21:33:49.220Z,21.00
2023-03-08T21:36:52.754Z,23.00
2023-03-08T21:39:56.589Z,26.40
2023-03-08T21:42:59.895Z,24.40
2023-03-08T21:46:05.527Z,26.40
2023-03-08T21:49:16.712Z,29.50
2023-03-08T21:52:20.028Z,26.20
2023-03-08T21:55:24.005Z,26.00
2023-03-08T21:58:27.973Z,22.20
2023-03-08T22:01:32.058Z,26.00
2023-03-08T22:04:36.745Z,26.00
2023-03-08T22:07:40.069Z,24.50
2023-03-08T22:10:43.537Z,25.00
2023-03-08T22:13:51.299Z,25.25
2023-03-08T22:16:56.507Z,17.25
2023-03-08T22:20:01.253Z,24.25
2023-03-08T22:23:04.599Z,23.00
2023-03-08T22:26:09.091Z,21.40
2023-03-08T22:29:12.339Z,18.80
2023-03-08T22:32:15.961Z,19.40
2023-03-08T22:35:22.228Z,20.00
2023-03-08T22:38:25.631Z,23.00
2023-03-08T22:41:29.796Z,22.80
2023-03-08T22:44:33.172Z,20.80
2023-03-08T22:47:36.414Z,20.00
2023-03-08T22:50:41.352Z,19.00
2023-03-08T22:53:44.993Z,16.00
2023-03-08T22:56:49.966Z,16.00
2023-03-08T22:59:56.452Z,16.00
2023-03-08T23:02:59.894Z,16.00
2023-03-08T23:06:04.764Z,15.75
2023-03-08T23:09:11.990Z,16.00
2023-03-08T23:12:15.755Z,16.00
2023-03-08T23:16:13.189Z,15.60
2023-03-08T23:19:21.502Z,15.00
2023-03-08T23:22:26.158Z,13.20
2023-03-08T23:25:29.700Z,12.50
2023-03-08T23:28:35.784Z,15.20
2023-03-08T23:31:40.698Z,14.60
2023-03-08T23:34:44.607Z,15.00
2023-03-08T23:37:49.449Z,15.00
2023-03-08T23:40:52.928Z,13.00
2023-03-08T23:43:57.469Z,17.60
2023-03-08T23:47:00.844Z,14.00
2023-03-08T23:50:04.431Z,14.80
2023-03-08T23:53:09.117Z,15.40
2023-03-08T23:56:20.041Z,15.40
2023-03-08T23:59:24.272Z,14.00
